sensor_id;sensor_type;location;lat;lon;timestamp;P1;durP1;ratioP1;P2;durP2;ratioP2
14060;SDS011;7105;43.616;1.434;2022-11-27T00:00:21;30.13;;;18.87;;
14060;SDS011;7105;43.616;1.434;2022-11-27T00:02:47;33.20;;;18.60;;
14060;SDS011;7105;43.616;1.434;2022-11-27T00:05:13;28.10;;;16.97;;
14060;SDS011;7105;43.616;1.434;2022-11-27T00:07:38;27.27;;;15.93;;
14060;SDS011;7105;43.616;1.434;2022-11-27T00:10:04;27.37;;;17.43;;
14060;SDS011;7105;43.616;1.434;2022-11-27T00:12:31;27.50;;;16.97;;
14060;SDS011;7105;43.616;1.434;2022-11-27T00:14:56;25.87;;;17.87;;
14060;SDS011;7105;43.616;1.434;2022-11-27T00:17:22;26.13;;;17.33;;
14060;SDS011;7105;43.616;1.434;2022-11-27T00:19:48;25.30;;;16.40;;
14060;SDS011;7105;43.616;1.434;2022-11-27T00:22:14;25.80;;;15.50;;
14060;SDS011;7105;43.616;1.434;2022-11-27T00:24:39;21.73;;;14.17;;
14060;SDS011;7105;43.616;1.434;2022-11-27T00:27:06;22.70;;;13.50;;
14060;SDS011;7105;43.616;1.434;2022-11-27T00:29:32;22.67;;;13.53;;
14060;SDS011;7105;43.616;1.434;2022-11-27T00:31:58;21.57;;;14.13;;
14060;SDS011;7105;43.616;1.434;2022-11-27T00:34:23;20.47;;;13.03;;
14060;SDS011;7105;43.616;1.434;2022-11-27T00:36:49;18.07;;;12.93;;
14060;SDS011;7105;43.616;1.434;2022-11-27T00:39:15;21.40;;;12.60;;
14060;SDS011;7105;43.616;1.434;2022-11-27T00:41:41;17.10;;;11.37;;
14060;SDS011;7105;43.616;1.434;2022-11-27T00:44:06;17.53;;;11.23;;
14060;SDS011;7105;43.616;1.434;2022-11-27T00:46:32;15.50;;;10.83;;
14060;SDS011;7105;43.616;1.434;2022-11-27T00:48:59;15.53;;;10.77;;
14060;SDS011;7105;43.616;1.434;2022-11-27T00:51:27;18.83;;;10.77;;
14060;SDS011;7105;43.616;1.434;2022-11-27T00:53:54;15.70;;;11.10;;
14060;SDS011;7105;43.616;1.434;2022-11-27T00:56:22;20.77;;;13.83;;
14060;SDS011;7105;43.616;1.434;2022-11-27T00:58:53;21.00;;;14.53;;
14060;SDS011;7105;43.616;1.434;2022-11-27T01:01:21;20.10;;;14.67;;
14060;SDS011;7105;43.616;1.434;2022-11-27T01:03:57;22.63;;;15.00;;
14060;SDS011;7105;43.616;1.434;2022-11-27T01:06:25;22.10;;;15.30;;
14060;SDS011;7105;43.616;1.434;2022-11-27T01:08:51;23.30;;;15.73;;
14060;SDS011;7105;43.616;1.434;2022-11-27T01:11:22;21.93;;;15.97;;
14060;SDS011;7105;43.616;1.434;2022-11-27T01:13:52;21.97;;;14.53;;
14060;SDS011;7105;43.616;1.434;2022-11-27T01:16:21;25.03;;;15.23;;
14060;SDS011;7105;43.616;1.434;2022-11-27T01:18:48;26.70;;;16.70;;
14060;SDS011;7105;43.616;1.434;2022-11-27T01:21:17;24.13;;;15.60;;
14060;SDS011;7105;43.616;1.434;2022-11-27T01:23:44;20.50;;;13.87;;
14060;SDS011;7105;43.616;1.434;2022-11-27T01:26:10;22.73;;;15.10;;
14060;SDS011;7105;43.616;1.434;2022-11-27T01:28:36;22.37;;;15.20;;
14060;SDS011;7105;43.616;1.434;2022-11-27T01:31:09;18.67;;;13.43;;
14060;SDS011;7105;43.616;1.434;2022-11-27T01:33:45;22.87;;;15.60;;
14060;SDS011;7105;43.616;1.434;2022-11-27T01:36:12;23.47;;;15.47;;
14060;SDS011;7105;43.616;1.434;2022-11-27T01:38:39;25.53;;;16.27;;
14060;SDS011;7105;43.616;1.434;2022-11-27T01:41:07;26.63;;;15.83;;
14060;SDS011;7105;43.616;1.434;2022-11-27T01:49:00;24.87;;;16.57;;
14060;SDS011;7105;43.616;1.434;2022-11-27T01:51:51;24.63;;;14.90;;
14060;SDS011;7105;43.616;1.434;2022-11-27T01:54:24;22.67;;;15.77;;
14060;SDS011;7105;43.616;1.434;2022-11-27T01:56:54;26.07;;;16.57;;
14060;SDS011;7105;43.616;1.434;2022-11-27T01:59:23;25.87;;;16.40;;
14060;SDS011;7105;43.616;1.434;2022-11-27T02:01:49;22.97;;;16.73;;
14060;SDS011;7105;43.616;1.434;2022-11-27T02:04:16;23.17;;;16.77;;
14060;SDS011;7105;43.616;1.434;2022-11-27T02:06:42;23.60;;;15.80;;
14060;SDS011;7105;43.616;1.434;2022-11-27T02:09:08;24.10;;;17.07;;
14060;SDS011;7105;43.616;1.434;2022-11-27T02:11:43;25.03;;;17.67;;
14060;SDS011;7105;43.616;1.434;2022-11-27T02:14:20;31.33;;;19.40;;
14060;SDS011;7105;43.616;1.434;2022-11-27T02:21:58;22.23;;;15.13;;
14060;SDS011;7105;43.616;1.434;2022-11-27T02:30:08;27.63;;;16.60;;
14060;SDS011;7105;43.616;1.434;2022-11-27T02:32:37;24.73;;;15.73;;
14060;SDS011;7105;43.616;1.434;2022-11-27T02:38:14;26.47;;;16.57;;
14060;SDS011;7105;43.616;1.434;2022-11-27T02:40:50;21.03;;;16.07;;
14060;SDS011;7105;43.616;1.434;2022-11-27T02:43:23;20.97;;;14.50;;
14060;SDS011;7105;43.616;1.434;2022-11-27T02:45:56;21.63;;;14.40;;
14060;SDS011;7105;43.616;1.434;2022-11-27T02:48:26;23.77;;;15.27;;
14060;SDS011;7105;43.616;1.434;2022-11-27T02:50:57;24.60;;;14.83;;
14060;SDS011;7105;43.616;1.434;2022-11-27T02:53:25;25.37;;;18.37;;
14060;SDS011;7105;43.616;1.434;2022-11-27T02:55:55;26.30;;;17.90;;
14060;SDS011;7105;43.616;1.434;2022-11-27T02:58:22;23.37;;;17.37;;
14060;SDS011;7105;43.616;1.434;2022-11-27T03:00:50;31.43;;;19.07;;
14060;SDS011;7105;43.616;1.434;2022-11-27T03:03:22;36.13;;;21.57;;
14060;SDS011;7105;43.616;1.434;2022-11-27T03:05:53;35.17;;;22.03;;
14060;SDS011;7105;43.616;1.434;2022-11-27T03:08:24;47.00;;;26.37;;
14060;SDS011;7105;43.616;1.434;2022-11-27T03:10:56;31.37;;;20.67;;
14060;SDS011;7105;43.616;1.434;2022-11-27T03:13:26;30.50;;;19.37;;
14060;SDS011;7105;43.616;1.434;2022-11-27T03:16:14;31.50;;;19.30;;
14060;SDS011;7105;43.616;1.434;2022-11-27T03:18:57;27.17;;;16.80;;
14060;SDS011;7105;43.616;1.434;2022-11-27T03:21:27;25.20;;;15.73;;
14060;SDS011;7105;43.616;1.434;2022-11-27T03:23:58;29.07;;;17.20;;
14060;SDS011;7105;43.616;1.434;2022-11-27T03:26:24;22.83;;;16.03;;
14060;SDS011;7105;43.616;1.434;2022-11-27T03:28:50;24.73;;;15.50;;
14060;SDS011;7105;43.616;1.434;2022-11-27T03:31:19;24.27;;;15.93;;
14060;SDS011;7105;43.616;1.434;2022-11-27T03:33:47;20.73;;;15.30;;
14060;SDS011;7105;43.616;1.434;2022-11-27T03:36:14;20.63;;;14.83;;
14060;SDS011;7105;43.616;1.434;2022-11-27T03:38:41;20.60;;;14.90;;
14060;SDS011;7105;43.616;1.434;2022-11-27T03:41:20;19.63;;;14.47;;
14060;SDS011;7105;43.616;1.434;2022-11-27T03:44:14;20.83;;;13.57;;
14060;SDS011;7105;43.616;1.434;2022-11-27T03:49:23;20.53;;;13.83;;
14060;SDS011;7105;43.616;1.434;2022-11-27T03:55:00;19.00;;;13.80;;
14060;SDS011;7105;43.616;1.434;2022-11-27T03:57:36;22.50;;;14.50;;
14060;SDS011;7105;43.616;1.434;2022-11-27T04:00:08;20.47;;;14.03;;
14060;SDS011;7105;43.616;1.434;2022-11-27T04:02:45;21.90;;;14.33;;
14060;SDS011;7105;43.616;1.434;2022-11-27T04:05:12;23.93;;;15.23;;
14060;SDS011;7105;43.616;1.434;2022-11-27T04:07:38;23.17;;;14.93;;
14060;SDS011;7105;43.616;1.434;2022-11-27T04:10:04;22.53;;;14.40;;
14060;SDS011;7105;43.616;1.434;2022-11-27T04:12:31;22.50;;;14.90;;
14060;SDS011;7105;43.616;1.434;2022-11-27T04:14:57;22.83;;;15.53;;
14060;SDS011;7105;43.616;1.434;2022-11-27T04:17:23;22.83;;;15.63;;
14060;SDS011;7105;43.616;1.434;2022-11-27T04:19:48;21.63;;;15.33;;
14060;SDS011;7105;43.616;1.434;2022-11-27T04:22:14;22.97;;;14.60;;
14060;SDS011;7105;43.616;1.434;2022-11-27T04:24:39;21.87;;;15.10;;
14060;SDS011;7105;43.616;1.434;2022-11-27T04:27:05;18.43;;;13.37;;
14060;SDS011;7105;43.616;1.434;2022-11-27T04:29:31;19.17;;;12.33;;
14060;SDS011;7105;43.616;1.434;2022-11-27T04:31:56;21.20;;;13.67;;
14060;SDS011;7105;43.616;1.434;2022-11-27T04:34:22;23.00;;;12.70;;
14060;SDS011;7105;43.616;1.434;2022-11-27T04:36:47;19.07;;;12.03;;
14060;SDS011;7105;43.616;1.434;2022-11-27T04:39:13;15.17;;;10.60;;
14060;SDS011;7105;43.616;1.434;2022-11-27T04:41:39;15.93;;;11.20;;
14060;SDS011;7105;43.616;1.434;2022-11-27T04:44:04;17.77;;;11.47;;
14060;SDS011;7105;43.616;1.434;2022-11-27T04:46:30;17.97;;;10.97;;
14060;SDS011;7105;43.616;1.434;2022-11-27T04:48:56;16.13;;;11.87;;
14060;SDS011;7105;43.616;1.434;2022-11-27T04:51:22;15.63;;;11.97;;
14060;SDS011;7105;43.616;1.434;2022-11-27T04:53:47;21.77;;;13.87;;
14060;SDS011;7105;43.616;1.434;2022-11-27T04:56:13;17.57;;;13.50;;
14060;SDS011;7105;43.616;1.434;2022-11-27T04:58:39;20.27;;;14.50;;
14060;SDS011;7105;43.616;1.434;2022-11-27T05:01:06;19.37;;;14.40;;
14060;SDS011;7105;43.616;1.434;2022-11-27T05:03:33;20.67;;;15.23;;
14060;SDS011;7105;43.616;1.434;2022-11-27T05:05:59;23.33;;;13.47;;
14060;SDS011;7105;43.616;1.434;2022-11-27T05:08:25;23.43;;;14.53;;
14060;SDS011;7105;43.616;1.434;2022-11-27T05:13:51;18.60;;;13.50;;
14060;SDS011;7105;43.616;1.434;2022-11-27T05:16:35;21.00;;;13.60;;
14060;SDS011;7105;43.616;1.434;2022-11-27T05:19:01;20.63;;;13.33;;
14060;SDS011;7105;43.616;1.434;2022-11-27T05:21:27;16.97;;;12.87;;
14060;SDS011;7105;43.616;1.434;2022-11-27T05:23:52;17.03;;;13.07;;
14060;SDS011;7105;43.616;1.434;2022-11-27T05:26:18;13.57;;;9.50;;
14060;SDS011;7105;43.616;1.434;2022-11-27T05:28:43;12.80;;;8.97;;
14060;SDS011;7105;43.616;1.434;2022-11-27T05:31:09;13.97;;;9.33;;
14060;SDS011;7105;43.616;1.434;2022-11-27T05:33:35;13.43;;;7.77;;
14060;SDS011;7105;43.616;1.434;2022-11-27T05:36:00;11.43;;;7.37;;
14060;SDS011;7105;43.616;1.434;2022-11-27T05:38:26;12.10;;;5.93;;
14060;SDS011;7105;43.616;1.434;2022-11-27T05:40:51;13.17;;;6.03;;
14060;SDS011;7105;43.616;1.434;2022-11-27T05:43:17;7.30;;;4.40;;
14060;SDS011;7105;43.616;1.434;2022-11-27T05:45:43;7.40;;;4.13;;
14060;SDS011;7105;43.616;1.434;2022-11-27T05:48:08;7.93;;;4.30;;
14060;SDS011;7105;43.616;1.434;2022-11-27T05:50:34;6.00;;;3.50;;
14060;SDS011;7105;43.616;1.434;2022-11-27T05:53:00;7.57;;;3.27;;
14060;SDS011;7105;43.616;1.434;2022-11-27T05:55:25;6.53;;;3.63;;
14060;SDS011;7105;43.616;1.434;2022-11-27T05:57:51;4.60;;;3.13;;
14060;SDS011;7105;43.616;1.434;2022-11-27T06:00:17;4.97;;;2.50;;
14060;SDS011;7105;43.616;1.434;2022-11-27T06:02:42;5.80;;;2.37;;
14060;SDS011;7105;43.616;1.434;2022-11-27T06:05:08;5.90;;;2.93;;
14060;SDS011;7105;43.616;1.434;2022-11-27T06:07:34;5.07;;;2.60;;
14060;SDS011;7105;43.616;1.434;2022-11-27T06:09:59;3.67;;;2.63;;
14060;SDS011;7105;43.616;1.434;2022-11-27T06:12:25;3.20;;;2.40;;
14060;SDS011;7105;43.616;1.434;2022-11-27T06:14:52;6.00;;;2.67;;
14060;SDS011;7105;43.616;1.434;2022-11-27T06:17:17;4.20;;;2.40;;
14060;SDS011;7105;43.616;1.434;2022-11-27T06:19:43;4.57;;;1.50;;
14060;SDS011;7105;43.616;1.434;2022-11-27T06:22:08;5.33;;;1.90;;
14060;SDS011;7105;43.616;1.434;2022-11-27T06:24:34;2.83;;;1.90;;
14060;SDS011;7105;43.616;1.434;2022-11-27T06:27:00;4.37;;;1.90;;
14060;SDS011;7105;43.616;1.434;2022-11-27T06:29:25;4.33;;;1.97;;
14060;SDS011;7105;43.616;1.434;2022-11-27T06:31:51;4.13;;;1.80;;
14060;SDS011;7105;43.616;1.434;2022-11-27T06:34:17;4.33;;;1.80;;
14060;SDS011;7105;43.616;1.434;2022-11-27T06:36:42;3.33;;;2.00;;
14060;SDS011;7105;43.616;1.434;2022-11-27T06:39:09;4.00;;;1.80;;
14060;SDS011;7105;43.616;1.434;2022-11-27T06:41:35;4.07;;;1.80;;
14060;SDS011;7105;43.616;1.434;2022-11-27T06:44:01;4.23;;;2.00;;
14060;SDS011;7105;43.616;1.434;2022-11-27T06:46:28;6.70;;;1.70;;
14060;SDS011;7105;43.616;1.434;2022-11-27T06:48:54;4.33;;;1.77;;
14060;SDS011;7105;43.616;1.434;2022-11-27T06:51:22;4.17;;;1.83;;
14060;SDS011;7105;43.616;1.434;2022-11-27T06:53:49;4.67;;;1.97;;
14060;SDS011;7105;43.616;1.434;2022-11-27T06:56:17;4.10;;;1.87;;
14060;SDS011;7105;43.616;1.434;2022-11-27T06:58:45;3.30;;;1.70;;
14060;SDS011;7105;43.616;1.434;2022-11-27T07:01:11;3.00;;;1.77;;
14060;SDS011;7105;43.616;1.434;2022-11-27T07:03:39;3.90;;;1.60;;
14060;SDS011;7105;43.616;1.434;2022-11-27T07:06:06;3.27;;;1.60;;
14060;SDS011;7105;43.616;1.434;2022-11-27T07:08:34;8.40;;;2.40;;
14060;SDS011;7105;43.616;1.434;2022-11-27T07:11:11;4.43;;;1.70;;
14060;SDS011;7105;43.616;1.434;2022-11-27T07:13:38;2.53;;;1.60;;
14060;SDS011;7105;43.616;1.434;2022-11-27T07:16:05;5.13;;;2.00;;
14060;SDS011;7105;43.616;1.434;2022-11-27T07:18:36;3.40;;;2.20;;
14060;SDS011;7105;43.616;1.434;2022-11-27T07:21:04;3.03;;;1.87;;
14060;SDS011;7105;43.616;1.434;2022-11-27T07:23:30;4.80;;;2.07;;
14060;SDS011;7105;43.616;1.434;2022-11-27T07:25:56;5.90;;;1.87;;
14060;SDS011;7105;43.616;1.434;2022-11-27T07:28:21;3.50;;;2.00;;
14060;SDS011;7105;43.616;1.434;2022-11-27T07:30:54;5.33;;;2.10;;
14060;SDS011;7105;43.616;1.434;2022-11-27T07:33:21;5.33;;;2.10;;
14060;SDS011;7105;43.616;1.434;2022-11-27T07:35:48;4.87;;;1.93;;
14060;SDS011;7105;43.616;1.434;2022-11-27T07:38:13;2.33;;;1.70;;
14060;SDS011;7105;43.616;1.434;2022-11-27T07:40:39;3.87;;;2.27;;
14060;SDS011;7105;43.616;1.434;2022-11-27T07:43:05;5.33;;;2.40;;
14060;SDS011;7105;43.616;1.434;2022-11-27T07:45:30;6.20;;;2.40;;
14060;SDS011;7105;43.616;1.434;2022-11-27T07:47:56;3.83;;;2.10;;
14060;SDS011;7105;43.616;1.434;2022-11-27T07:50:22;3.20;;;2.07;;
14060;SDS011;7105;43.616;1.434;2022-11-27T07:52:47;4.80;;;2.57;;
14060;SDS011;7105;43.616;1.434;2022-11-27T07:55:13;3.30;;;2.00;;
14060;SDS011;7105;43.616;1.434;2022-11-27T07:57:39;3.40;;;2.17;;
14060;SDS011;7105;43.616;1.434;2022-11-27T08:00:06;5.73;;;2.40;;
14060;SDS011;7105;43.616;1.434;2022-11-27T08:02:32;5.07;;;2.30;;
14060;SDS011;7105;43.616;1.434;2022-11-27T08:04:58;5.73;;;2.30;;
14060;SDS011;7105;43.616;1.434;2022-11-27T08:07:27;5.20;;;2.30;;
14060;SDS011;7105;43.616;1.434;2022-11-27T08:09:54;4.77;;;2.40;;
14060;SDS011;7105;43.616;1.434;2022-11-27T08:12:22;3.50;;;2.20;;
14060;SDS011;7105;43.616;1.434;2022-11-27T08:14:48;4.07;;;2.20;;
14060;SDS011;7105;43.616;1.434;2022-11-27T08:17:13;4.93;;;2.20;;
14060;SDS011;7105;43.616;1.434;2022-11-27T08:19:39;6.00;;;2.50;;
14060;SDS011;7105;43.616;1.434;2022-11-27T08:22:05;3.70;;;2.10;;
14060;SDS011;7105;43.616;1.434;2022-11-27T08:24:34;3.70;;;2.23;;
14060;SDS011;7105;43.616;1.434;2022-11-27T08:27:02;4.07;;;2.20;;
14060;SDS011;7105;43.616;1.434;2022-11-27T08:29:28;5.37;;;2.17;;
14060;SDS011;7105;43.616;1.434;2022-11-27T08:31:53;4.47;;;2.23;;
14060;SDS011;7105;43.616;1.434;2022-11-27T08:34:19;5.63;;;2.97;;
14060;SDS011;7105;43.616;1.434;2022-11-27T08:36:45;6.93;;;2.33;;
14060;SDS011;7105;43.616;1.434;2022-11-27T08:39:11;4.20;;;2.47;;
14060;SDS011;7105;43.616;1.434;2022-11-27T08:41:36;4.80;;;3.03;;
14060;SDS011;7105;43.616;1.434;2022-11-27T08:44:02;3.63;;;2.50;;
14060;SDS011;7105;43.616;1.434;2022-11-27T08:46:28;6.50;;;2.70;;
14060;SDS011;7105;43.616;1.434;2022-11-27T08:48:53;6.47;;;2.63;;
14060;SDS011;7105;43.616;1.434;2022-11-27T08:51:19;4.67;;;2.70;;
14060;SDS011;7105;43.616;1.434;2022-11-27T08:53:45;6.17;;;2.53;;
14060;SDS011;7105;43.616;1.434;2022-11-27T08:56:13;6.30;;;3.03;;
14060;SDS011;7105;43.616;1.434;2022-11-27T08:58:41;7.17;;;3.00;;
14060;SDS011;7105;43.616;1.434;2022-11-27T09:01:11;4.60;;;2.93;;
14060;SDS011;7105;43.616;1.434;2022-11-27T09:03:40;5.37;;;2.70;;
14060;SDS011;7105;43.616;1.434;2022-11-27T09:06:09;6.00;;;2.80;;
14060;SDS011;7105;43.616;1.434;2022-11-27T09:08:38;3.57;;;2.30;;
14060;SDS011;7105;43.616;1.434;2022-11-27T09:11:04;5.63;;;2.93;;
14060;SDS011;7105;43.616;1.434;2022-11-27T09:13:31;4.77;;;2.57;;
14060;SDS011;7105;43.616;1.434;2022-11-27T09:15:57;4.00;;;2.53;;
14060;SDS011;7105;43.616;1.434;2022-11-27T09:18:23;4.10;;;2.60;;
14060;SDS011;7105;43.616;1.434;2022-11-27T09:21:03;5.63;;;2.40;;
14060;SDS011;7105;43.616;1.434;2022-11-27T09:23:31;7.60;;;3.07;;
14060;SDS011;7105;43.616;1.434;2022-11-27T09:25:58;3.30;;;2.50;;
14060;SDS011;7105;43.616;1.434;2022-11-27T09:28:24;4.83;;;2.67;;
14060;SDS011;7105;43.616;1.434;2022-11-27T09:30:54;5.13;;;2.60;;
14060;SDS011;7105;43.616;1.434;2022-11-27T09:33:20;4.93;;;2.23;;
14060;SDS011;7105;43.616;1.434;2022-11-27T09:35:47;7.67;;;3.10;;
14060;SDS011;7105;43.616;1.434;2022-11-27T09:38:13;4.23;;;2.63;;
14060;SDS011;7105;43.616;1.434;2022-11-27T09:40:42;5.60;;;2.97;;
14060;SDS011;7105;43.616;1.434;2022-11-27T09:43:25;4.57;;;2.80;;
14060;SDS011;7105;43.616;1.434;2022-11-27T09:45:55;4.03;;;2.30;;
14060;SDS011;7105;43.616;1.434;2022-11-27T09:48:31;5.57;;;2.70;;
14060;SDS011;7105;43.616;1.434;2022-11-27T09:51:01;4.53;;;2.57;;
14060;SDS011;7105;43.616;1.434;2022-11-27T09:56:07;6.37;;;2.93;;
14060;SDS011;7105;43.616;1.434;2022-11-27T09:58:42;4.27;;;2.93;;
14060;SDS011;7105;43.616;1.434;2022-11-27T10:01:11;5.27;;;2.70;;
14060;SDS011;7105;43.616;1.434;2022-11-27T10:03:42;6.13;;;3.20;;
14060;SDS011;7105;43.616;1.434;2022-11-27T10:08:46;6.17;;;3.27;;
14060;SDS011;7105;43.616;1.434;2022-11-27T10:11:35;5.43;;;3.13;;
14060;SDS011;7105;43.616;1.434;2022-11-27T10:24:58;7.70;;;3.67;;
14060;SDS011;7105;43.616;1.434;2022-11-27T10:27:50;5.83;;;3.30;;
14060;SDS011;7105;43.616;1.434;2022-11-27T10:30:20;8.07;;;3.70;;
14060;SDS011;7105;43.616;1.434;2022-11-27T10:32:47;4.83;;;3.43;;
14060;SDS011;7105;43.616;1.434;2022-11-27T10:35:21;5.27;;;3.30;;
14060;SDS011;7105;43.616;1.434;2022-11-27T10:37:53;5.17;;;3.17;;
14060;SDS011;7105;43.616;1.434;2022-11-27T10:40:49;6.17;;;3.67;;
14060;SDS011;7105;43.616;1.434;2022-11-27T10:43:35;5.63;;;2.97;;
14060;SDS011;7105;43.616;1.434;2022-11-27T10:46:02;6.87;;;3.57;;
14060;SDS011;7105;43.616;1.434;2022-11-27T10:48:36;5.23;;;3.57;;
14060;SDS011;7105;43.616;1.434;2022-11-27T10:51:02;5.87;;;3.60;;
14060;SDS011;7105;43.616;1.434;2022-11-27T10:53:28;6.37;;;3.30;;
14060;SDS011;7105;43.616;1.434;2022-11-27T11:01:21;4.03;;;2.83;;
14060;SDS011;7105;43.616;1.434;2022-11-27T11:03:48;6.23;;;3.40;;
14060;SDS011;7105;43.616;1.434;2022-11-27T11:06:18;5.50;;;3.40;;
14060;SDS011;7105;43.616;1.434;2022-11-27T11:08:59;6.57;;;3.50;;
14060;SDS011;7105;43.616;1.434;2022-11-27T11:11:27;5.83;;;3.27;;
14060;SDS011;7105;43.616;1.434;2022-11-27T11:13:52;5.23;;;3.53;;
14060;SDS011;7105;43.616;1.434;2022-11-27T11:16:24;5.80;;;3.97;;
14060;SDS011;7105;43.616;1.434;2022-11-27T11:18:54;6.63;;;4.10;;
14060;SDS011;7105;43.616;1.434;2022-11-27T11:21:33;12.93;;;5.07;;
14060;SDS011;7105;43.616;1.434;2022-11-27T11:24:05;6.80;;;4.70;;
14060;SDS011;7105;43.616;1.434;2022-11-27T11:26:44;9.67;;;4.73;;
14060;SDS011;7105;43.616;1.434;2022-11-27T11:31:56;8.53;;;4.33;;
14060;SDS011;7105;43.616;1.434;2022-11-27T11:34:29;12.20;;;4.47;;
14060;SDS011;7105;43.616;1.434;2022-11-27T11:36:56;8.73;;;4.63;;
14060;SDS011;7105;43.616;1.434;2022-11-27T11:39:30;6.30;;;3.80;;
14060;SDS011;7105;43.616;1.434;2022-11-27T11:42:19;10.07;;;4.70;;
14060;SDS011;7105;43.616;1.434;2022-11-27T11:44:51;6.20;;;3.57;;
14060;SDS011;7105;43.616;1.434;2022-11-27T11:47:19;5.93;;;3.30;;
14060;SDS011;7105;43.616;1.434;2022-11-27T11:49:49;8.10;;;4.10;;
14060;SDS011;7105;43.616;1.434;2022-11-27T12:15:34;7.37;;;3.80;;
14060;SDS011;7105;43.616;1.434;2022-11-27T12:43:06;8.70;;;3.40;;
14060;SDS011;7105;43.616;1.434;2022-11-27T12:45:44;5.53;;;3.50;;
14060;SDS011;7105;43.616;1.434;2022-11-27T12:48:32;5.80;;;2.97;;
14060;SDS011;7105;43.616;1.434;2022-11-27T12:51:00;8.63;;;3.77;;
14060;SDS011;7105;43.616;1.434;2022-11-27T12:53:43;4.80;;;3.37;;
14060;SDS011;7105;43.616;1.434;2022-11-27T12:59:01;4.67;;;3.07;;
14060;SDS011;7105;43.616;1.434;2022-11-27T13:04:51;5.23;;;3.13;;
14060;SDS011;7105;43.616;1.434;2022-11-27T13:07:23;4.40;;;2.87;;
14060;SDS011;7105;43.616;1.434;2022-11-27T13:10:02;6.50;;;3.17;;
14060;SDS011;7105;43.616;1.434;2022-11-27T13:12:49;5.60;;;2.90;;
14060;SDS011;7105;43.616;1.434;2022-11-27T13:17:50;6.57;;;3.33;;
14060;SDS011;7105;43.616;1.434;2022-11-27T13:20:33;4.23;;;3.07;;
14060;SDS011;7105;43.616;1.434;2022-11-27T13:23:02;6.70;;;3.03;;
14060;SDS011;7105;43.616;1.434;2022-11-27T13:25:28;5.47;;;3.30;;
14060;SDS011;7105;43.616;1.434;2022-11-27T13:27:58;6.30;;;3.00;;
14060;SDS011;7105;43.616;1.434;2022-11-27T13:30:28;5.40;;;3.17;;
14060;SDS011;7105;43.616;1.434;2022-11-27T13:32:58;4.97;;;3.60;;
14060;SDS011;7105;43.616;1.434;2022-11-27T13:35:41;4.33;;;3.03;;
14060;SDS011;7105;43.616;1.434;2022-11-27T13:38:09;6.13;;;2.97;;
14060;SDS011;7105;43.616;1.434;2022-11-27T13:40:46;5.80;;;3.33;;
14060;SDS011;7105;43.616;1.434;2022-11-27T13:43:27;7.00;;;3.57;;
14060;SDS011;7105;43.616;1.434;2022-11-27T13:46:03;6.80;;;3.03;;
14060;SDS011;7105;43.616;1.434;2022-11-27T13:54:13;4.90;;;2.83;;
14060;SDS011;7105;43.616;1.434;2022-11-27T13:56:42;6.77;;;3.20;;
14060;SDS011;7105;43.616;1.434;2022-11-27T13:59:26;6.90;;;2.60;;
14060;SDS011;7105;43.616;1.434;2022-11-27T14:01:59;6.73;;;3.00;;
14060;SDS011;7105;43.616;1.434;2022-11-27T14:04:26;6.27;;;2.80;;
14060;SDS011;7105;43.616;1.434;2022-11-27T14:07:13;6.33;;;2.87;;
14060;SDS011;7105;43.616;1.434;2022-11-27T14:17:48;4.67;;;2.47;;
14060;SDS011;7105;43.616;1.434;2022-11-27T14:27:52;3.87;;;1.80;;
14060;SDS011;7105;43.616;1.434;2022-11-27T14:30:39;7.43;;;2.63;;
14060;SDS011;7105;43.616;1.434;2022-11-27T14:33:16;6.50;;;3.00;;
14060;SDS011;7105;43.616;1.434;2022-11-27T14:35:47;7.47;;;2.40;;
14060;SDS011;7105;43.616;1.434;2022-11-27T14:38:18;5.60;;;3.00;;
14060;SDS011;7105;43.616;1.434;2022-11-27T14:40:44;7.77;;;3.10;;
14060;SDS011;7105;43.616;1.434;2022-11-27T14:43:14;6.40;;;2.90;;
14060;SDS011;7105;43.616;1.434;2022-11-27T14:45:48;5.57;;;3.30;;
14060;SDS011;7105;43.616;1.434;2022-11-27T14:48:23;4.80;;;2.47;;
14060;SDS011;7105;43.616;1.434;2022-11-27T14:50:50;6.43;;;2.73;;
14060;SDS011;7105;43.616;1.434;2022-11-27T14:53:21;4.27;;;3.00;;
14060;SDS011;7105;43.616;1.434;2022-11-27T14:55:49;5.47;;;3.03;;
14060;SDS011;7105;43.616;1.434;2022-11-27T14:58:18;6.27;;;3.10;;
14060;SDS011;7105;43.616;1.434;2022-11-27T15:00:51;5.23;;;3.27;;
14060;SDS011;7105;43.616;1.434;2022-11-27T15:03:19;5.27;;;2.90;;
14060;SDS011;7105;43.616;1.434;2022-11-27T15:05:50;5.70;;;2.77;;
14060;SDS011;7105;43.616;1.434;2022-11-27T15:08:19;10.93;;;3.30;;
14060;SDS011;7105;43.616;1.434;2022-11-27T15:10:45;6.00;;;2.97;;
14060;SDS011;7105;43.616;1.434;2022-11-27T15:13:21;4.40;;;2.40;;
14060;SDS011;7105;43.616;1.434;2022-11-27T15:16:06;6.80;;;2.50;;
14060;SDS011;7105;43.616;1.434;2022-11-27T15:18:36;8.23;;;3.20;;
14060;SDS011;7105;43.616;1.434;2022-11-27T15:21:07;6.20;;;2.80;;
14060;SDS011;7105;43.616;1.434;2022-11-27T15:23:36;5.30;;;2.73;;
14060;SDS011;7105;43.616;1.434;2022-11-27T15:28:36;5.70;;;3.47;;
14060;SDS011;7105;43.616;1.434;2022-11-27T15:34:01;6.53;;;3.67;;
14060;SDS011;7105;43.616;1.434;2022-11-27T15:42:03;4.57;;;3.10;;
14060;SDS011;7105;43.616;1.434;2022-11-27T15:44:34;6.23;;;3.40;;
14060;SDS011;7105;43.616;1.434;2022-11-27T15:47:00;5.33;;;2.93;;
14060;SDS011;7105;43.616;1.434;2022-11-27T15:49:27;8.70;;;4.03;;
14060;SDS011;7105;43.616;1.434;2022-11-27T15:51:54;5.57;;;3.23;;
14060;SDS011;7105;43.616;1.434;2022-11-27T15:54:20;7.23;;;3.60;;
14060;SDS011;7105;43.616;1.434;2022-11-27T15:56:46;6.23;;;3.07;;
14060;SDS011;7105;43.616;1.434;2022-11-27T15:59:13;6.87;;;3.17;;
14060;SDS011;7105;43.616;1.434;2022-11-27T16:01:39;5.80;;;3.10;;
14060;SDS011;7105;43.616;1.434;2022-11-27T16:04:05;7.33;;;3.40;;
14060;SDS011;7105;43.616;1.434;2022-11-27T16:06:31;7.33;;;3.80;;
14060;SDS011;7105;43.616;1.434;2022-11-27T16:08:59;5.60;;;2.83;;
14060;SDS011;7105;43.616;1.434;2022-11-27T16:11:28;6.90;;;3.27;;
14060;SDS011;7105;43.616;1.434;2022-11-27T16:13:55;5.97;;;3.33;;
14060;SDS011;7105;43.616;1.434;2022-11-27T16:16:21;5.87;;;3.57;;
14060;SDS011;7105;43.616;1.434;2022-11-27T16:18:47;6.90;;;4.00;;
14060;SDS011;7105;43.616;1.434;2022-11-27T16:21:14;5.47;;;3.53;;
14060;SDS011;7105;43.616;1.434;2022-11-27T16:23:40;7.83;;;4.57;;
14060;SDS011;7105;43.616;1.434;2022-11-27T16:26:06;6.40;;;3.90;;
14060;SDS011;7105;43.616;1.434;2022-11-27T16:28:34;7.53;;;4.37;;
14060;SDS011;7105;43.616;1.434;2022-11-27T16:31:01;6.97;;;3.63;;
14060;SDS011;7105;43.616;1.434;2022-11-27T16:33:28;10.47;;;5.87;;
14060;SDS011;7105;43.616;1.434;2022-11-27T16:35:55;8.20;;;3.90;;
14060;SDS011;7105;43.616;1.434;2022-11-27T16:38:21;8.63;;;3.87;;
14060;SDS011;7105;43.616;1.434;2022-11-27T16:40:47;6.53;;;3.27;;
14060;SDS011;7105;43.616;1.434;2022-11-27T16:43:13;9.00;;;3.77;;
14060;SDS011;7105;43.616;1.434;2022-11-27T16:45:39;7.73;;;3.40;;
14060;SDS011;7105;43.616;1.434;2022-11-27T16:48:05;6.17;;;3.30;;
14060;SDS011;7105;43.616;1.434;2022-11-27T16:50:31;9.07;;;3.67;;
14060;SDS011;7105;43.616;1.434;2022-11-27T16:52:57;6.20;;;3.47;;
14060;SDS011;7105;43.616;1.434;2022-11-27T16:55:23;5.13;;;3.43;;
14060;SDS011;7105;43.616;1.434;2022-11-27T16:57:49;9.63;;;4.10;;
14060;SDS011;7105;43.616;1.434;2022-11-27T17:00:15;8.47;;;4.70;;
14060;SDS011;7105;43.616;1.434;2022-11-27T17:02:41;6.83;;;4.40;;
14060;SDS011;7105;43.616;1.434;2022-11-27T17:05:07;7.70;;;4.10;;
14060;SDS011;7105;43.616;1.434;2022-11-27T17:07:33;7.73;;;4.10;;
14060;SDS011;7105;43.616;1.434;2022-11-27T17:09:58;7.93;;;3.70;;
14060;SDS011;7105;43.616;1.434;2022-11-27T17:12:24;9.20;;;4.60;;
14060;SDS011;7105;43.616;1.434;2022-11-27T17:14:50;9.03;;;5.13;;
14060;SDS011;7105;43.616;1.434;2022-11-27T17:17:15;10.73;;;4.87;;
14060;SDS011;7105;43.616;1.434;2022-11-27T17:19:41;8.67;;;4.50;;
14060;SDS011;7105;43.616;1.434;2022-11-27T17:22:07;8.27;;;4.43;;
14060;SDS011;7105;43.616;1.434;2022-11-27T17:24:32;8.47;;;4.50;;